Time;durP1;ratioP1;P1;durP2;ratioP2;P2;SDS_P1;SDS_P2;PMS_P1;PMS_P2;Temp;Humidity;BMP_temperature;BMP_pressure;BME280_temperature;BME280_humidity;BME280_pressure;Samples;Min_cycle;Max_cycle;Signal;HPM_P1;HPM_P2
2022/10/29 00:00:37;;;;;;;9.43;3.80;;;;;;;16.81;89.29;100673.59;2818594;81;21069;-86
2022/10/29 00:04:40;;;;;;;7.03;3.52;;;;;;;16.83;89.31;100678.30;2881707;79;21395;-86
2022/10/29 00:08:42;;;;;;;4.87;3.37;;;;;;;16.80;89.26;100673.25;2870593;79;21043;-86
2022/10/29 00:12:44;;;;;;;14.33;3.95;;;;;;;16.78;89.33;100669.88;2825119;80;21532;-86
2022/10/29 00:16:45;;;;;;;8.85;4.78;;;;;;;16.80;89.51;100678.63;2856551;78;21014;-86
2022/10/29 00:21:08;;;;;;;5.65;3.47;;;;;;;16.80;89.39;100686.69;2850839;80;21625;-86
2022/10/29 00:25:09;;;;;;;14.07;4.15;;;;;;;16.79;89.92;100685.00;2907607;78;20994;-86
2022/10/29 00:29:11;;;;;;;8.45;4.87;;;;;;;16.76;90.57;100686.66;2950025;78;21003;-85
2022/10/29 00:33:12;;;;;;;7.58;5.17;;;;;;;16.80;90.85;100684.86;2897984;79;21521;-86
2022/10/29 00:37:31;;;;;;;5.03;3.92;;;;;;;16.88;90.82;100693.45;2979732;78;21047;-85
2022/10/29 00:41:51;;;;;;;7.12;3.75;;;;;;;16.98;90.32;100698.72;2903124;79;21011;-86
2022/10/29 00:45:57;;;;;;;7.17;3.83;;;;;;;17.04;90.33;100690.08;2955853;78;21040;-85
2022/10/29 00:50:04;;;;;;;6.72;4.35;;;;;;;17.11;90.34;100692.98;2941847;79;21063;-85
2022/10/29 00:54:09;;;;;;;10.28;5.10;;;;;;;17.16;90.04;100700.05;2909968;80;21045;-85
2022/10/29 00:58:29;;;;;;;11.95;4.28;;;;;;;17.24;90.06;100704.13;2899363;79;21047;-85
2022/10/29 01:02:32;;;;;;;6.47;4.70;;;;;;;17.26;89.80;100699.94;2865908;80;21012;-86
2022/10/29 01:06:34;;;;;;;16.80;5.08;;;;;;;17.25;89.24;100695.57;2894166;79;21568;-86
2022/10/29 01:11:16;;;;;;;5.90;3.75;;;;;;;17.23;89.48;100690.86;2876959;80;21018;-86
2022/10/29 01:15:44;;;;;;;10.03;4.05;;;;;;;17.26;89.25;100698.08;2925256;79;21104;-85
2022/10/29 01:20:19;;;;;;;14.58;4.37;;;;;;;17.26;89.10;100698.08;2930724;79;21073;-85
2022/10/29 01:25:01;;;;;;;6.87;4.35;;;;;;;17.29;89.44;100698.27;2871463;80;21066;-86
2022/10/29 01:29:59;;;;;;;6.53;4.30;;;;;;;17.33;89.18;100702.84;2935540;79;21569;-86
2022/10/29 01:34:15;;;;;;;6.05;3.72;;;;;;;17.36;89.45;100702.52;2903580;80;20990;-86
2022/10/29 01:38:39;;;;;;;15.23;6.28;;;;;;;17.38;89.57;100705.88;2882509;80;21046;-86
2022/10/29 01:42:52;;;;;;;3.52;3.08;;;;;;;17.35;89.80;100715.10;2816549;82;21577;-85
2022/10/29 01:47:21;;;;;;;4.92;3.47;;;;;;;17.37;89.59;100716.30;2907085;79;21003;-85
2022/10/29 01:51:42;;;;;;;14.45;4.35;;;;;;;17.36;89.42;100711.41;2952418;78;20992;-85
2022/10/29 01:55:43;;;;;;;6.03;4.30;;;;;;;17.34;88.63;100700.49;2927554;79;21905;-85
2022/10/29 01:59:45;;;;;;;9.68;4.15;;;;;;;17.20;88.82;100697.38;2838876;80;21023;-85
2022/10/29 02:04:11;;;;;;;8.30;4.12;;;;;;;17.13;88.99;100693.14;2821416;80;21551;-85
2022/10/29 02:08:19;;;;;;;;;;;;;;;17.09;89.20;100705.70;2878322;80;21058;-86
2022/10/29 02:12:25;;;;;;;8.85;4.55;;;;;;;17.08;88.99;100699.98;2899330;80;20089;-85
2022/10/29 02:16:46;;;;;;;8.20;4.90;;;;;;;17.06;88.72;100688.07;2923334;79;20995;-85
2022/10/29 02:21:05;;;;;;;13.13;4.62;;;;;;;16.98;88.58;100683.48;2870202;80;21493;-86
2022/10/29 02:25:08;;;;;;;7.78;3.85;;;;;;;16.94;88.97;100682.09;2878041;80;21002;-85
2022/10/29 02:29:09;;;;;;;5.03;3.50;;;;;;;16.95;89.04;100678.40;2949581;79;21084;-86
2022/10/29 02:33:11;;;;;;;10.70;4.83;;;;;;;16.93;89.08;100671.48;2944990;79;21055;-85
2022/10/29 02:37:30;;;;;;;7.00;3.65;;;;;;;16.94;88.96;100671.83;2940626;79;21021;-86
2022/10/29 02:41:32;;;;;;;8.23;3.80;;;;;;;16.93;89.02;100674.17;2955556;78;21459;-85
2022/10/29 02:45:33;;;;;;;39.13;5.80;;;;;;;16.94;89.08;100678.55;2969506;78;20986;-85
2022/10/29 02:49:34;;;;;;;14.20;4.12;;;;;;;16.92;88.98;100680.06;2973971;78;21011;-85
2022/10/29 02:53:36;;;;;;;6.97;4.45;;;;;;;16.90;88.99;100680.73;2855894;79;21491;-86
2022/10/29 02:57:37;;;;;;;11.00;4.85;;;;;;;16.80;89.13;100686.69;2807553;81;21010;-86
2022/10/29 03:01:39;;;;;;;12.43;5.75;;;;;;;16.67;89.73;100689.27;2964450;78;21374;-86
2022/10/29 03:05:58;;;;;;;11.90;4.40;;;;;;;16.56;90.33;100697.08;2958016;78;21600;-86
2022/10/29 03:09:59;;;;;;;8.15;3.85;;;;;;;16.51;91.20;100696.70;2946119;78;21138;-86
2022/10/29 03:14:00;;;;;;;6.80;4.30;;;;;;;16.39;91.18;100692.08;2801794;80;21089;-85
2022/10/29 03:18:20;;;;;;;7.03;3.72;;;;;;;16.22;92.01;100692.92;2890923;80;20991;-86
2022/10/29 03:22:21;;;;;;;8.10;5.55;;;;;;;16.15;92.31;100686.48;2831863;81;21027;-85
2022/10/29 03:26:22;;;;;;;9.10;5.37;;;;;;;16.04;92.69;100697.77;2870190;81;21065;-85
2022/10/29 03:30:24;;;;;;;6.40;4.17;;;;;;;16.05;93.34;100699.45;2867585;80;21054;-85
2022/10/29 03:34:43;;;;;;;5.70;3.70;;;;;;;16.08;93.49;100691.61;2980496;77;20976;-86
2022/10/29 03:38:44;;;;;;;12.35;4.35;;;;;;;16.04;93.39;100689.72;2955497;78;20960;-85
2022/10/29 03:42:46;;;;;;;6.45;3.35;;;;;;;16.04;93.38;100696.43;2904766;79;21533;-85
2022/10/29 03:46:47;;;;;;;5.60;4.55;;;;;;;16.04;93.12;100703.65;2928781;78;21035;-86
2022/10/29 03:50:59;;;;;;;7.55;4.33;;;;;;;15.98;93.11;100713.14;2860552;78;21034;-85
2022/10/29 03:55:18;;;;;;;20.65;4.55;;;;;;;15.93;93.58;100708.22;2910903;78;21452;-85
2022/10/29 03:59:20;;;;;;;5.80;3.75;;;;;;;15.79;93.71;100724.78;2948516;78;21006;-85
2022/10/29 04:03:22;;;;;;;7.55;4.70;;;;;;;15.77;94.16;100725.42;2942332;79;21024;-85
2022/10/29 04:07:23;;;;;;;11.05;3.83;;;;;;;15.73;94.46;100732.95;2952685;78;21032;-85
2022/10/29 04:11:25;;;;;;;8.68;3.77;;;;;;;15.69;94.86;100736.89;2928097;79;21566;-85
2022/10/29 04:15:26;;;;;;;5.92;4.30;;;;;;;15.71;95.03;100749.66;2949965;79;21530;-85
2022/10/29 04:19:27;;;;;;;11.33;4.40;;;;;;;15.72;94.74;100751.34;2959443;78;20962;-85
2022/10/29 04:23:28;;;;;;;7.08;3.90;;;;;;;15.69;94.32;100755.19;2936364;78;21046;-85
2022/10/29 04:27:31;;;;;;;8.50;4.60;;;;;;;15.67;94.45;100765.70;2956754;78;21006;-86
2022/10/29 04:31:32;;;;;;;6.10;4.80;;;;;;;15.67;94.48;100763.02;2983326;78;21526;-85
2022/10/29 04:35:34;;;;;;;11.43;5.33;;;;;;;15.62;94.68;100770.67;2947171;78;21506;-85
2022/10/29 04:39:35;;;;;;;8.10;4.72;;;;;;;15.59;95.52;100773.65;2916635;78;21009;-85
2022/10/29 04:43:55;;;;;;;11.73;4.47;;;;;;;15.57;95.84;100777.80;2912440;78;21049;-86
2022/10/29 04:48:04;;;;;;;9.00;4.05;;;;;;;15.60;96.47;100782.87;2970810;77;20998;-85
2022/10/29 04:52:05;;;;;;;8.25;3.83;;;;;;;15.66;97.76;100781.44;2968342;78;21023;-85
2022/10/29 04:56:07;;;;;;;8.50;4.05;;;;;;;15.75;98.45;100785.94;2953189;78;21565;-85
2022/10/29 05:00:26;;;;;;;9.43;4.75;;;;;;;15.86;99.13;100787.59;2964629;78;20982;-85
2022/10/29 05:04:28;;;;;;;9.78;4.60;;;;;;;15.96;99.46;100796.45;2961925;79;20986;-85
2022/10/29 05:08:30;;;;;;;7.62;4.65;;;;;;;16.06;99.30;100795.05;2968111;77;21515;-85
2022/10/29 05:12:31;;;;;;;15.00;5.45;;;;;;;15.99;99.93;100800.17;2884608;79;21059;-85
2022/10/29 05:16:32;;;;;;;11.18;5.33;;;;;;;15.87;100.00;100802.69;2871811;80;20950;-85
2022/10/29 05:20:34;;;;;;;6.80;4.70;;;;;;;15.90;100.00;100802.90;2878071;80;21169;-85
2022/10/29 05:24:35;;;;;;;7.67;4.85;;;;;;;15.95;100.00;100812.71;2910853;79;21050;-85
2022/10/29 05:28:37;;;;;;;11.80;5.40;;;;;;;16.03;100.00;100812.80;2910894;79;21017;-85
2022/10/29 05:32:38;;;;;;;11.68;4.33;;;;;;;16.12;100.00;100814.61;2913979;79;20999;-85
2022/10/29 05:36:39;;;;;;;17.12;6.33;;;;;;;16.22;100.00;100811.01;2932886;79;21402;-85
2022/10/29 05:40:43;;;;;;;13.28;6.83;;;;;;;16.32;100.00;100817.18;2971953;78;20998;-85
2022/10/29 05:44:44;;;;;;;13.75;7.60;;;;;;;16.40;100.00;100808.34;2943913;79;21084;-85
2022/10/29 05:49:04;;;;;;;33.92;7.70;;;;;;;16.48;100.00;100815.64;2985446;78;20980;-85
2022/10/29 05:53:09;;;;;;;12.50;6.08;;;;;;;16.57;100.00;100810.72;2931333;79;21565;-85
2022/10/29 05:58:08;;;;;;;11.33;6.70;;;;;;;16.60;100.00;100814.92;2957997;77;21024;-85
2022/10/29 06:02:09;;;;;;;12.75;6.90;;;;;;;16.63;99.99;100815.98;2852477;80;21067;-85
2022/10/29 06:06:29;;;;;;;15.55;6.00;;;;;;;16.67;99.56;100818.70;2952283;79;22129;-84
2022/10/29 06:10:33;;;;;;;13.53;6.75;;;;;;;16.68;99.31;100822.56;2962112;78;21570;-85
2022/10/29 06:14:35;;;;;;;12.88;6.65;;;;;;;16.72;99.13;100829.00;2954204;77;21085;-85
2022/10/29 06:18:36;;;;;;;15.72;7.58;;;;;;;16.77;99.06;100832.06;2922529;79;21097;-85
2022/10/29 06:22:37;;;;;;;12.23;6.45;;;;;;;16.81;98.44;100838.81;2934506;78;21110;-85
2022/10/29 06:26:56;;;;;;;31.00;13.08;;;;;;;16.84;98.50;100841.19;2942457;79;21039;-85
2022/10/29 06:31:16;;;;;;;16.17;6.30;;;;;;;16.80;99.04;100845.19;2904424;79;21019;-85
2022/10/29 06:35:17;;;;;;;13.68;6.80;;;;;;;16.66;100.00;100851.42;2836445;81;21025;-85
2022/10/29 06:39:19;;;;;;;11.78;6.05;;;;;;;16.74;100.00;100847.98;2836574;81;21081;-85
2022/10/29 06:43:20;;;;;;;19.70;7.30;;;;;;;16.91;100.00;100853.03;2898652;80;21031;-85
2022/10/29 06:47:44;;;;;;;11.63;6.55;;;;;;;17.09;100.00;100845.46;2858505;80;20988;-85
2022/10/29 06:51:46;;;;;;;9.38;6.22;;;;;;;17.28;100.00;100849.83;2854459;80;21039;-85
2022/10/29 06:55:48;;;;;;;15.90;6.58;;;;;;;17.42;100.00;100849.76;2910494;80;20970;-85
2022/10/29 06:59:49;;;;;;;10.48;4.62;;;;;;;17.56;100.00;100843.81;2950461;79;21037;-85
2022/10/29 07:04:09;;;;;;;12.20;6.55;;;;;;;17.68;100.00;100855.64;2923639;79;21012;-85
2022/10/29 07:08:29;;;;;;;9.58;5.65;;;;;;;17.76;99.76;100846.29;2869262;80;21505;-84
2022/10/29 07:12:30;;;;;;;9.28;5.30;;;;;;;17.83;99.08;100853.23;2882733;80;21015;-85
2022/10/29 07:16:32;;;;;;;9.03;5.22;;;;;;;17.90;99.08;100844.02;2898857;80;21516;-84
2022/10/29 07:20:40;;;;;;;10.05;5.40;;;;;;;17.97;98.82;100851.77;2921607;79;21035;-84
2022/10/29 07:24:41;;;;;;;18.50;6.95;;;;;;;18.01;99.01;100850.45;2908907;80;21020;-84
2022/10/29 07:28:43;;;;;;;11.68;6.17;;;;;;;18.07;99.17;100840.92;2849393;80;20987;-85
2022/10/29 07:32:44;;;;;;;8.00;4.87;;;;;;;18.22;99.38;100850.56;2911526;79;21045;-85
2022/10/29 07:36:45;;;;;;;15.18;5.03;;;;;;;18.37;99.67;100847.59;2867162;80;21049;-84
2022/10/29 07:40:49;;;;;;;10.70;6.05;;;;;;;18.56;98.91;100849.67;2861927;81;21075;-85
2022/10/29 07:44:50;;;;;;;13.60;6.10;;;;;;;18.68;98.97;100846.16;2905733;79;21003;-86
2022/10/29 07:48:51;;;;;;;7.97;5.30;;;;;;;18.74;98.10;100853.56;2845484;80;20951;-86
2022/10/29 07:52:53;;;;;;;9.93;5.10;;;;;;;18.79;97.63;100859.32;2914953;79;21563;-87
2022/10/29 07:56:54;;;;;;;12.73;6.42;;;;;;;18.80;97.25;100852.06;2938274;79;21017;-86
2022/10/29 08:00:59;;;;;;;9.33;5.42;;;;;;;18.79;96.75;100848.55;2832696;79;21056;-86
2022/10/29 08:05:00;;;;;;;10.07;4.27;;;;;;;18.79;96.59;100854.42;2853689;80;21567;-87
2022/10/29 08:09:02;;;;;;;8.10;5.90;;;;;;;18.75;96.51;100859.81;2856857;81;21003;-87
2022/10/29 08:13:05;;;;;;;6.10;4.50;;;;;;;18.70;96.50;100866.55;2834636;81;21038;-87
2022/10/29 08:17:07;;;;;;;9.93;5.08;;;;;;;18.65;97.07;100862.13;2863301;81;21064;-87
2022/10/29 08:21:08;;;;;;;12.28;4.92;;;;;;;18.68;97.72;100862.31;2843787;80;21066;-87
2022/10/29 08:25:10;;;;;;;9.35;5.53;;;;;;;18.80;97.88;100864.19;2816376;82;21031;-86
2022/10/29 08:29:11;;;;;;;7.58;5.47;;;;;;;18.92;97.54;100866.91;2883789;80;21490;-86
2022/10/29 08:33:13;;;;;;;10.72;5.78;;;;;;;19.11;97.55;100866.28;2809897;82;21017;-86
2022/10/29 08:37:14;;;;;;;11.05;5.62;;;;;;;19.28;96.96;100862.25;2807529;81;21019;-87
2022/10/29 08:41:36;;;;;;;9.80;5.30;;;;;;;19.41;96.38;100866.11;2833899;81;20990;-87
2022/10/29 08:45:47;;;;;;;10.00;6.40;;;;;;;19.56;95.76;100865.42;2860148;81;21035;-87
2022/10/29 08:50:18;;;;;;;12.07;4.15;;;;;;;19.80;96.61;100856.94;2844004;82;21062;-87
2022/10/29 08:54:23;;;;;;;16.55;5.67;;;;;;;20.01;96.28;100854.20;2844492;81;21494;-86
2022/10/29 08:58:38;;;;;;;10.03;5.42;;;;;;;20.23;92.95;100856.12;2850867;80;21035;-86
2022/10/29 09:02:39;;;;;;;11.48;6.60;;;;;;;20.43;93.77;100858.40;2909320;79;21015;-87
2022/10/29 09:07:05;;;;;;;10.93;5.85;;;;;;;20.61;91.53;100871.63;2946188;79;21556;-87
2022/10/29 09:11:48;;;;;;;7.72;4.62;;;;;;;20.78;91.94;100874.23;2900207;79;21050;-87
2022/10/29 09:16:18;;;;;;;12.43;5.30;;;;;;;20.95;90.18;100872.31;2908709;79;21518;-87
2022/10/29 09:20:37;;;;;;;8.68;5.22;;;;;;;21.08;89.30;100866.30;2899554;79;21061;-86
2022/10/29 09:25:10;;;;;;;11.43;5.00;;;;;;;21.17;87.71;100866.55;2912910;79;21070;-87
2022/10/29 09:29:31;;;;;;;10.20;4.83;;;;;;;21.18;87.61;100874.98;2953191;78;21510;-86
2022/10/29 09:33:33;;;;;;;10.98;5.62;;;;;;;21.17;88.05;100872.48;2938264;78;21010;-86
2022/10/29 09:37:52;;;;;;;14.35;7.25;;;;;;;21.17;88.17;100867.89;2943017;78;21016;-86
2022/10/29 09:41:53;;;;;;;13.55;5.62;;;;;;;21.19;89.18;100868.55;2924929;78;21582;-88
2022/10/29 09:46:32;;;;;;;15.45;5.12;;;;;;;21.26;89.68;100869.53;2941839;78;21050;-87
2022/10/29 09:51:12;;;;;;;11.05;5.33;;;;;;;21.31;89.07;100872.19;2936942;79;22762;-87
2022/10/29 09:55:27;;;;;;;14.15;5.17;;;;;;;21.37;90.09;100871.45;2936000;79;21020;-87
2022/10/29 09:59:54;;;;;;;7.55;5.75;;;;;;;21.40;90.21;100860.25;2910611;79;21003;-88
2022/10/29 10:04:36;;;;;;;9.60;5.40;;;;;;;21.40;88.86;100852.13;2937359;78;21007;-86
2022/10/29 10:09:03;;;;;;;8.68;5.20;;;;;;;21.43;88.97;100845.53;2889303;78;21031;-87
2022/10/29 10:13:09;;;;;;;9.98;4.60;;;;;;;21.45;87.62;100832.15;2835741;81;21046;-87
2022/10/29 10:17:11;;;;;;;14.30;5.58;;;;;;;21.48;86.73;100831.77;2920921;79;21502;-87
2022/10/29 10:21:32;;;;;;;9.75;5.40;;;;;;;21.59;85.67;100830.48;2917056;79;20986;-87
2022/10/29 10:25:37;;;;;;;10.38;5.00;;;;;;;21.69;85.96;100838.36;2957751;78;21002;-87
2022/10/29 10:29:38;;;;;;;6.87;5.03;;;;;;;21.77;85.64;100830.13;2859519;79;21108;-87
2022/10/29 10:33:52;;;;;;;19.82;7.28;;;;;;;21.75;84.34;100840.31;2918509;80;21012;-87
2022/10/29 10:38:14;;;;;;;10.25;5.83;;;;;;;21.78;86.24;100841.28;2890194;80;21070;-87
2022/10/29 10:42:41;;;;;;;6.80;4.12;;;;;;;21.63;86.82;100845.84;2888664;79;21175;-88
2022/10/29 10:46:44;;;;;;;12.00;5.72;;;;;;;21.48;86.84;100840.39;2904668;80;21097;-87
2022/10/29 10:50:45;;;;;;;13.78;5.55;;;;;;;21.54;85.96;100843.20;2952782;79;21117;-87
2022/10/29 10:55:01;;;;;;;14.50;6.97;;;;;;;21.70;87.79;100833.27;2906661;79;21022;-87
2022/10/29 10:59:09;;;;;;;;;;;;;;;21.79;85.53;100824.01;2898319;78;20977;-87
2022/10/29 11:03:18;;;;;;;6.92;4.47;;;;;;;21.72;85.35;100826.33;2842793;81;20526;-87
2022/10/29 11:07:21;;;;;;;10.43;5.33;;;;;;;21.74;85.57;100821.03;2833541;81;21544;-87
2022/10/29 11:12:20;;;;;;;6.78;4.10;;;;;;;21.74;83.52;100806.14;2905016;79;20971;-88
2022/10/29 11:16:30;;;;;;;9.75;6.15;;;;;;;21.71;84.65;100806.52;2935713;79;21075;-88
2022/10/29 11:20:35;;;;;;;12.78;6.05;;;;;;;21.79;86.27;100802.35;2863123;80;21001;-88
2022/10/29 11:25:05;;;;;;;18.23;5.65;;;;;;;21.74;86.67;100823.73;2957345;78;21557;-88
2022/10/29 11:29:27;;;;;;;9.93;6.08;;;;;;;21.55;86.37;100816.47;2920602;78;21016;-88
2022/10/29 11:33:43;;;;;;;6.75;5.58;;;;;;;21.51;85.64;100811.60;2943272;79;21008;-88
2022/10/29 11:38:06;;;;;;;9.20;5.45;;;;;;;21.36;86.54;100809.74;2894772;80;21541;-87
2022/10/29 11:42:08;;;;;;;7.08;4.87;;;;;;;21.39;87.72;100813.92;2883453;80;21011;-88
2022/10/29 11:46:58;;;;;;;15.50;8.93;;;;;;;21.43;88.36;100803.58;2904621;79;21006;-88
2022/10/29 11:51:11;;;;;;;11.73;7.12;;;;;;;21.57;89.53;100795.14;2879168;80;21326;-88
2022/10/29 11:55:39;;;;;;;14.25;6.95;;;;;;;21.68;89.07;100794.72;2895900;79;20984;-87
2022/10/29 12:00:01;;;;;;;12.53;6.37;;;;;;;21.67;87.68;100786.27;2954247;79;21010;-87
2022/10/29 12:04:25;;;;;;;11.18;7.90;;;;;;;21.57;89.15;100785.66;2835824;82;21022;-88
2022/10/29 12:08:47;;;;;;;13.40;7.67;;;;;;;21.50;91.67;100784.21;2811140;81;21023;-87
2022/10/29 12:13:03;;;;;;;10.15;6.75;;;;;;;21.40;91.09;100781.28;2882510;80;21053;-87
2022/10/29 12:17:43;;;;;;;9.80;6.20;;;;;;;21.41;92.07;100783.45;2847138;81;21049;-88
2022/10/29 12:21:50;;;;;;;10.98;7.05;;;;;;;21.46;92.83;100772.94;2891243;80;21005;-87
2022/10/29 12:26:00;;;;;;;11.50;8.85;;;;;;;21.34;91.88;100773.92;2841070;80;21027;-87
2022/10/29 12:30:05;;;;;;;21.57;8.28;;;;;;;21.44;92.85;100764.17;2823920;81;22816;-87
2022/10/29 12:34:30;;;;;;;10.98;7.92;;;;;;;21.50;92.20;100756.66;2898826;79;21044;-86
2022/10/29 12:38:52;;;;;;;15.05;8.20;;;;;;;21.52;94.02;100761.89;2901970;80;21007;-86
2022/10/29 12:42:57;;;;;;;12.55;8.33;;;;;;;21.63;92.27;100770.05;2854531;80;21034;-86
2022/10/29 12:47:22;;;;;;;13.00;7.87;;;;;;;21.69;92.19;100763.91;2888910;80;21137;-87
2022/10/29 12:51:45;;;;;;;10.85;6.85;;;;;;;21.66;91.09;100756.17;2862844;80;21052;-87
2022/10/29 12:55:47;;;;;;;10.68;7.35;;;;;;;21.61;92.08;100762.61;2893751;80;21010;-88
2022/10/29 12:59:49;;;;;;;12.68;6.62;;;;;;;21.62;92.44;100762.96;2910938;79;21509;-87
2022/10/29 13:03:57;;;;;;;17.55;9.25;;;;;;;21.76;90.57;100758.06;2909947;79;21006;-88
2022/10/29 13:08:22;;;;;;;10.95;8.18;;;;;;;21.87;90.12;100759.44;2895230;79;21011;-87
2022/10/29 13:12:56;;;;;;;15.43;8.75;;;;;;;21.94;89.44;100759.53;2918292;80;20976;-87
2022/10/29 13:16:59;;;;;;;15.28;8.85;;;;;;;21.91;88.65;100757.20;2640464;88;21111;-87
2022/10/29 13:21:00;;;;;;;13.80;8.50;;;;;;;21.80;87.29;100741.75;2667084;88;21083;-88
2022/10/29 13:25:37;;;;;;;16.82;8.30;;;;;;;21.64;87.00;100732.48;2671910;87;21079;-88
2022/10/29 13:29:48;;;;;;;12.37;8.40;;;;;;;21.58;89.28;100729.16;2670565;87;21724;-89
2022/10/29 13:33:50;;;;;;;14.38;9.13;;;;;;;21.57;90.87;100728.33;2587639;89;21046;-88
2022/10/29 13:37:55;;;;;;;12.98;8.48;;;;;;;21.56;93.95;100723.95;2603669;90;21067;-89
2022/10/29 13:41:56;;;;;;;14.00;8.83;;;;;;;21.62;94.88;100723.72;2650727;88;21075;-88
2022/10/29 13:46:17;;;;;;;16.77;10.03;;;;;;;21.65;94.44;100724.72;2629963;87;21076;-88
2022/10/29 13:50:19;;;;;;;18.75;10.48;;;;;;;21.66;94.10;100722.34;2594810;89;21059;-87
2022/10/29 13:54:35;;;;;;;14.73;10.72;;;;;;;21.55;94.97;100726.33;2788457;83;20985;-89
2022/10/29 13:58:40;;;;;;;17.70;9.15;;;;;;;21.55;96.08;100728.50;2769340;83;21043;-88
2022/10/29 14:03:16;;;;;;;14.05;9.25;;;;;;;21.67;96.02;100726.19;2802859;83;21657;-88
2022/10/29 14:07:23;;;;;;;21.55;10.25;;;;;;;21.79;95.42;100717.06;2782258;82;21113;-87
2022/10/29 14:11:30;;;;;;;16.67;10.05;;;;;;;21.91;94.96;100718.80;2837548;80;21443;-88
2022/10/29 14:15:31;;;;;;;11.83;9.18;;;;;;;22.03;94.21;100709.66;2849265;81;21051;-88
2022/10/29 14:19:51;;;;;;;19.90;9.88;;;;;;;22.14;93.64;100705.59;2834640;82;21138;-88
2022/10/29 14:24:15;;;;;;;15.38;10.48;;;;;;;22.24;93.46;100712.06;2826701;81;21012;-87
2022/10/29 14:28:34;;;;;;;17.45;9.03;;;;;;;22.34;91.70;100703.61;2830130;83;21065;-87
2022/10/29 14:32:39;;;;;;;17.60;9.90;;;;;;;22.38;91.58;100714.38;2840414;82;21459;-87
2022/10/29 14:36:44;;;;;;;17.53;8.83;;;;;;;22.42;90.84;100717.55;2877089;81;20972;-87
2022/10/29 14:40:46;;;;;;;15.30;9.63;;;;;;;22.39;90.78;100712.81;2891366;80;21118;-88
2022/10/29 14:44:53;;;;;;;13.93;8.75;;;;;;;22.37;90.56;100705.39;2874127;80;21055;-87
2022/10/29 14:49:02;;;;;;;16.30;8.60;;;;;;;22.30;90.64;100702.30;2880869;81;20961;-87
2022/10/29 14:53:09;;;;;;;34.20;10.98;;;;;;;22.25;90.32;100698.83;2814762;82;20971;-88
2022/10/29 14:57:15;;;;;;;11.18;8.63;;;;;;;22.11;90.04;100697.86;2960283;78;20985;-87
2022/10/29 15:01:19;;;;;;;17.55;9.65;;;;;;;21.98;89.97;100698.53;2941821;78;21126;-88
2022/10/29 15:05:39;;;;;;;18.02;10.10;;;;;;;21.88;90.01;100696.66;2964205;78;21401;-87
2022/10/29 15:09:42;;;;;;;29.18;14.73;;;;;;;21.74;90.13;100697.85;2959327;79;20941;-87
2022/10/29 15:13:45;;;;;;;39.65;18.75;;;;;;;21.62;90.50;100708.83;2925525;79;20983;-87
2022/10/29 15:18:15;;;;;;;56.58;34.53;;;;;;;21.35;91.31;100707.95;2949822;78;21589;-88
2022/10/29 15:22:22;;;;;;;34.27;17.70;;;;;;;21.23;91.32;100709.44;2951614;79;20996;-88
2022/10/29 15:26:23;;;;;;;33.08;12.28;;;;;;;21.01;92.17;100720.14;2926232;79;20967;-88
2022/10/29 15:30:34;;;;;;;16.42;11.83;;;;;;;20.89;92.02;100717.55;2951286;78;20965;-89
2022/10/29 15:34:57;;;;;;;28.23;12.28;;;;;;;20.76;91.35;100730.31;2869875;81;21044;-88
2022/10/29 15:39:09;;;;;;;22.47;11.30;;;;;;;20.60;91.52;100729.94;2854530;82;20990;-87
2022/10/29 15:43:29;;;;;;;27.32;13.25;;;;;;;20.37;92.66;100727.56;2883617;80;20992;-87
2022/10/29 15:47:30;;;;;;;16.37;11.03;;;;;;;20.20;92.68;100731.39;2825839;80;20955;-87
2022/10/29 15:51:50;;;;;;;15.23;9.95;;;;;;;19.97;94.97;100722.75;2856109;80;21010;-88
2022/10/29 15:56:12;;;;;;;15.28;9.23;;;;;;;19.82;95.61;100716.72;2861695;81;20996;-88
2022/10/29 16:00:14;;;;;;;14.70;10.05;;;;;;;19.61;96.71;100715.98;2947979;78;21002;-87
2022/10/29 16:04:15;;;;;;;29.60;14.03;;;;;;;19.47;97.97;100714.01;2950731;78;21031;-87
2022/10/29 16:08:28;;;;;;;22.30;17.62;;;;;;;19.42;98.80;100714.52;2947778;78;21005;-87
2022/10/29 16:12:49;;;;;;;30.85;18.40;;;;;;;19.38;99.66;100719.45;2812720;82;20999;-88
2022/10/29 16:16:50;;;;;;;67.35;46.58;;;;;;;19.33;100.00;100720.45;2886792;80;21549;-88
2022/10/29 16:20:59;;;;;;;82.22;47.78;;;;;;;19.20;100.00;100716.95;2852376;79;21000;-88
2022/10/29 16:25:00;;;;;;;84.77;55.52;;;;;;;19.13;100.00;100720.84;2906165;80;21011;-88
2022/10/29 16:29:01;;;;;;;84.62;52.80;;;;;;;19.12;100.00;100713.76;2807572;80;21037;-88
2022/10/29 16:33:03;;;;;;;102.50;59.98;;;;;;;19.08;100.00;100714.30;2893360;80;21066;-88
2022/10/29 16:37:04;;;;;;;105.30;65.90;;;;;;;19.12;100.00;100710.23;2900102;80;21014;-89
2022/10/29 16:41:24;;;;;;;151.50;89.85;;;;;;;19.13;100.00;100702.48;2890577;81;21038;-88
2022/10/29 16:45:31;;;;;;;107.87;73.65;;;;;;;19.03;100.00;100700.47;2951537;79;21007;-88
2022/10/29 16:49:32;;;;;;;132.57;81.12;;;;;;;18.76;100.00;100697.12;2881509;81;21091;-88
2022/10/29 16:53:34;;;;;;;185.78;115.08;;;;;;;18.69;100.00;100700.98;2826927;82;21061;-88
2022/10/29 16:57:36;;;;;;;155.65;90.07;;;;;;;18.51;100.00;100702.52;2932430;79;37177;-88
2022/10/29 17:01:38;;;;;;;90.83;63.98;;;;;;;18.29;100.00;100705.36;2893558;80;21043;-88
2022/10/29 17:06:05;;;;;;;117.30;70.97;;;;;;;18.15;100.00;100704.98;2944730;78;21623;-88
2022/10/29 17:10:25;;;;;;;112.47;75.37;;;;;;;18.14;100.00;100700.61;2933724;78;21632;-88
2022/10/29 17:14:44;;;;;;;96.90;62.67;;;;;;;18.13;100.00;100699.78;2918455;79;20988;-87
2022/10/29 17:18:49;;;;;;;84.00;55.12;;;;;;;18.18;100.00;100702.48;2886671;80;20955;-87
2022/10/29 17:22:49;;;;;;;70.10;45.33;;;;;;;18.27;100.00;100705.02;2888244;80;21050;-87
2022/10/29 17:26:50;;;;;;;53.75;31.10;;;;;;;18.38;100.00;100703.84;2882454;80;21002;-86
2022/10/29 17:30:52;;;;;;;34.80;25.43;;;;;;;18.53;100.00;100693.23;2878924;80;20941;-86
2022/10/29 17:34:53;;;;;;;35.80;24.72;;;;;;;18.63;100.00;100698.98;2877660;80;21179;-88
2022/10/29 17:38:55;;;;;;;35.90;18.40;;;;;;;18.68;100.00;100700.66;2876361;80;21114;-87
2022/10/29 17:42:56;;;;;;;31.55;22.48;;;;;;;18.70;100.00;100695.45;2888625;80;21129;-87
2022/10/29 17:47:16;;;;;;;29.12;20.12;;;;;;;18.68;100.00;100693.43;2877304;80;21023;-87
2022/10/29 17:51:17;;;;;;;19.92;15.60;;;;;;;18.67;100.00;100695.78;2850960;80;21056;-88
2022/10/29 17:55:19;;;;;;;22.22;15.32;;;;;;;18.62;100.00;100690.56;2876583;80;21052;-88
2022/10/29 17:59:20;;;;;;;20.17;14.05;;;;;;;18.53;100.00;100696.45;2864602;81;21029;-88
2022/10/29 18:03:26;;;;;;;16.10;11.80;;;;;;;18.41;98.85;100698.13;2845002;81;21001;-88
2022/10/29 18:07:29;;;;;;;22.30;12.13;;;;;;;18.29;97.94;100704.86;2848724;81;21547;-88
2022/10/29 18:11:31;;;;;;;18.85;11.78;;;;;;;18.21;98.85;100709.73;2833201;81;21047;-88
2022/10/29 18:15:32;;;;;;;18.98;12.53;;;;;;;18.11;98.11;100710.37;2853032;81;21519;-88
2022/10/29 18:19:34;;;;;;;16.70;11.75;;;;;;;18.06;98.43;100702.78;2864064;81;21004;-87
2022/10/29 18:23:53;;;;;;;17.23;12.45;;;;;;;17.98;99.50;100701.39;2825508;81;21578;-87
2022/10/29 18:27:55;;;;;;;19.60;12.70;;;;;;;17.93;100.00;100703.75;2834043;81;21042;-87
2022/10/29 18:31:57;;;;;;;20.92;12.63;;;;;;;17.89;100.00;100707.26;2860895;80;21494;-86
2022/10/29 18:35:58;;;;;;;14.03;9.90;;;;;;;17.86;100.00;100702.21;2884048;80;21015;-86
2022/10/29 18:39:59;;;;;;;19.23;10.95;;;;;;;17.88;100.00;100706.06;2959534;78;20997;-86
2022/10/29 18:44:01;;;;;;;13.72;10.10;;;;;;;17.89;100.00;100706.44;2942746;78;21449;-86
2022/10/29 18:48:03;;;;;;;19.45;11.25;;;;;;;17.89;100.00;100699.70;2925798;79;21523;-86
2022/10/29 18:52:04;;;;;;;20.80;11.57;;;;;;;17.98;100.00;100701.39;2879711;79;21074;-86
2022/10/29 18:56:13;;;;;;;15.13;9.43;;;;;;;17.98;100.00;100696.02;2853502;80;21130;-86
2022/10/29 19:00:16;;;;;;;14.47;9.63;;;;;;;17.99;100.00;100690.97;2886044;79;21026;-86
2022/10/29 19:04:17;;;;;;;12.05;9.13;;;;;;;17.98;100.00;100690.14;2885388;80;21008;-86
2022/10/29 19:08:19;;;;;;;17.23;9.60;;;;;;;17.97;100.00;100698.37;2862203;80;21018;-86